Detall de PIREP

Printer-friendly versionPDF version

[2017/08/10 07:52:00]
Flight IATA:CT2112
Pilot Number:041
Company ICAO:CAT
Aircraft Type:B738/F
PAX:124
Departing Airport: LEVC
Destination Airport: LEZL
Alternate Airport:LEMD
Online: VATSIM
Route:ASTRO UM985 VIBAS
Flight Level:FL330
No Slew and time accel
No pause
Crash detect
Detect pilot in Cockpit between each 30 and 45 minutes
07:52 Zero fuel Weight: 135505 Lbs, Fuel Weight: 13959 Lbs
07:52 VATSIM:LEVC 100730Z 29004KT 250V330 9999 FEW030 BKN060 19/12 Q1022 NOSIG
07:52 VATSIM:LEZL 100730Z 06005KT 030V090 CAVOK 22/13 Q1018 NOSIG
07:52 VOICE CATALONIAN
07:58 Parking Brakes off
08:03 Take-off
08:03 Take off Weight: 148695 Lbs
08:03 Wind: 073º @ 004 Knots Heading: 295º
08:03 POS N39º 29´ 33´´ W000º 29´ 25´´
08:03 Gear Up: 170 Knots
08:03 Flaps:3 at 170 Knots
08:04 Flaps:2 at 189 Knots
08:04 Flaps:1 at 193 Knots
08:04 Flaps:0 at 193 Knots
08:18 Wind:256º@037 Knots Heading: 234º Ground Speed: 431 Knots Altitude 29685 ft
08:20 TOC
08:20 Fuel Weight: 9633 Lb
08:33 Wind:226º@037 Knots Heading: 225º Ground Speed: 421 Knots Altitude 32956 ft
08:38 TOD
08:38 Fuel Weight: 7854 Lb
08:48 Wind:044º@003 Knots Heading: 274º Ground Speed: 357 Knots Altitude 12985 ft
08:52 Flaps:1 at 245 Knots
08:52 Flaps:2 at 237 Knots
08:52 Flaps:3 at 234 Knots
08:53 Flaps:4 at 229 Knots
09:02 Flaps:5 at 198 Knots
09:03 Wind:209º@009 Knots Heading: 092º Ground Speed: 205 Knots Altitude 2509 ft
09:04 Flaps:6 at 194 Knots
09:04 Flaps:7 at 184 Knots
09:04 Gear Down: 166 Knots
09:04 Flaps:8 at 159 Knots
09:06 TouchDown:Rate -336 ft/min Speed: 131 Knots
09:06 VATSIM:LEZL 100830Z 06010KT 030V090 CAVOK 26/11 Q1018 NOSIG
09:06 Land
09:06 Wind:205º@009 Knots
09:06 Heading: 096º
09:06 Flight Duration: 01:03
09:06 Landing Weight: 141681 Lbs
09:06POS N37º 25´ 04´´ W005º 53´ 34´´
09:08 Parking brakes on
09:08 Block to Block Duration: 01:10
09:08 Final Fuel: 5941 Lbls
09:08 Spent Fuel: 8018 Lbls
09:08 Flight Length: 359 NM
09:08 TOD Land Length: 133 NM

Exportar CSV

Powered by Drupal - Modified by Danger4k